sensor_id;sensor_type;location;lat;lon;timestamp;pressure;altitude;pressure_sealevel;temperature;humidity
77871;BME280;67067;46.850;7.578;2023-07-02T00:00:56;95046.88;;;16.13;56.27
77871;BME280;67067;46.850;7.578;2023-07-02T00:01:58;95049.84;;;16.11;56.31
77871;BME280;67067;46.850;7.578;2023-07-02T00:03:01;95051.22;;;16.09;56.02
77871;BME280;67067;46.850;7.578;2023-07-02T00:04:05;95050.72;;;16.07;56.41
77871;BME280;67067;46.850;7.578;2023-07-02T00:05:10;95055.56;;;16.04;56.10
77871;BME280;67067;46.850;7.578;2023-07-02T00:06:12;95053.66;;;15.86;56.58
77871;BME280;67067;46.850;7.578;2023-07-02T00:07:14;95052.44;;;15.97;56.50
77871;BME280;67067;46.850;7.578;2023-07-02T00:08:16;95058.84;;;15.96;56.59
77871;BME280;67067;46.850;7.578;2023-07-02T00:09:17;95058.47;;;15.84;56.50
77871;BME280;67067;46.850;7.578;2023-07-02T00:10:22;95051.13;;;15.95;56.22
77871;BME280;67067;46.850;7.578;2023-07-02T00:11:24;95058.84;;;15.96;56.40
77871;BME280;67067;46.850;7.578;2023-07-02T00:12:25;95059.78;;;15.86;56.21
77871;BME280;67067;46.850;7.578;2023-07-02T00:13:27;95049.78;;;15.97;56.24
77871;BME280;67067;46.850;7.578;2023-07-02T00:14:29;95052.66;;;16.01;56.08
77871;BME280;67067;46.850;7.578;2023-07-02T00:15:30;95055.47;;;15.90;56.57
77871;BME280;67067;46.850;7.578;2023-07-02T00:16:32;95065.19;;;16.00;56.23
77871;BME280;67067;46.850;7.578;2023-07-02T00:17:34;95055.91;;;15.98;56.51
77871;BME280;67067;46.850;7.578;2023-07-02T00:18:36;95055.22;;;15.87;56.84
77871;BME280;67067;46.850;7.578;2023-07-02T00:19:39;95063.63;;;15.99;56.57
77871;BME280;67067;46.850;7.578;2023-07-02T00:20:43;95065.19;;;16.00;56.54
77871;BME280;67067;46.850;7.578;2023-07-02T00:21:47;95065.00;;;15.97;56.81
77871;BME280;67067;46.850;7.578;2023-07-02T00:22:49;95052.94;;;15.99;56.57
77871;BME280;67067;46.850;7.578;2023-07-02T00:23:51;95053.44;;;15.82;56.72
77871;BME280;67067;46.850;7.578;2023-07-02T00:24:53;95066.91;;;15.91;56.44
77871;BME280;67067;46.850;7.578;2023-07-02T00:25:57;95063.75;;;15.89;56.43
77871;BME280;67067;46.850;7.578;2023-07-02T00:26:59;95058.41;;;15.89;56.28
77871;BME280;67067;46.850;7.578;2023-07-02T00:28:04;95051.47;;;15.88;56.05
77871;BME280;67067;46.850;7.578;2023-07-02T00:29:05;95058.97;;;15.86;56.22
77871;BME280;67067;46.850;7.578;2023-07-02T00:30:11;95061.97;;;15.84;56.35
77871;BME280;67067;46.850;7.578;2023-07-02T00:31:13;95055.22;;;15.87;56.52
77871;BME280;67067;46.850;7.578;2023-07-02T00:32:15;95053.22;;;15.79;56.09
77871;BME280;67067;46.850;7.578;2023-07-02T00:33:16;95056.81;;;15.88;55.83
77871;BME280;67067;46.850;7.578;2023-07-02T00:34:19;95053.88;;;15.89;55.48
77871;BME280;67067;46.850;7.578;2023-07-02T00:35:21;95050.13;;;15.90;55.50
77871;BME280;67067;46.850;7.578;2023-07-02T00:36:23;95050.91;;;15.91;55.59
77871;BME280;67067;46.850;7.578;2023-07-02T00:37:24;95044.38;;;15.83;55.51
77871;BME280;67067;46.850;7.578;2023-07-02T00:38:26;95050.84;;;15.96;55.17
77871;BME280;67067;46.850;7.578;2023-07-02T00:39:28;95046.16;;;15.88;55.31
77871;BME280;67067;46.850;7.578;2023-07-02T00:40:31;95044.94;;;15.99;55.47
77871;BME280;67067;46.850;7.578;2023-07-02T00:41:33;95044.44;;;15.97;55.32
77871;BME280;67067;46.850;7.578;2023-07-02T00:42:35;95042.41;;;16.08;55.04
77871;BME280;67067;46.850;7.578;2023-07-02T00:43:37;95049.06;;;16.11;54.91
77871;BME280;67067;46.850;7.578;2023-07-02T00:44:45;95039.66;;;16.13;54.53
77871;BME280;67067;46.850;7.578;2023-07-02T00:45:47;95039.38;;;16.15;54.57
77871;BME280;67067;46.850;7.578;2023-07-02T00:46:49;95035.28;;;16.03;54.40
77871;BME280;67067;46.850;7.578;2023-07-02T00:47:54;95036.78;;;16.10;54.46
77871;BME280;67067;46.850;7.578;2023-07-02T00:48:56;95038.47;;;16.06;54.46
77871;BME280;67067;46.850;7.578;2023-07-02T00:49:58;95035.22;;;16.09;54.53
77871;BME280;67067;46.850;7.578;2023-07-02T00:51:03;95048.06;;;16.07;54.48
77871;BME280;67067;46.850;7.578;2023-07-02T00:52:05;95044.28;;;16.08;54.31
77871;BME280;67067;46.850;7.578;2023-07-02T00:53:07;95044.00;;;16.09;54.70
77871;BME280;67067;46.850;7.578;2023-07-02T00:54:11;95044.00;;;16.09;54.32
77871;BME280;67067;46.850;7.578;2023-07-02T00:55:12;95042.25;;;15.99;54.67
77871;BME280;67067;46.850;7.578;2023-07-02T00:56:18;95045.88;;;16.09;54.52
77871;BME280;67067;46.850;7.578;2023-07-02T00:57:23;95042.63;;;16.12;54.55
77871;BME280;67067;46.850;7.578;2023-07-02T00:58:32;95046.66;;;16.09;54.16
77871;BME280;67067;46.850;7.578;2023-07-02T00:59:38;95052.81;;;16.10;54.36
77871;BME280;67067;46.850;7.578;2023-07-02T01:00:39;95050.63;;;16.12;54.13
77871;BME280;67067;46.850;7.578;2023-07-02T01:01:41;95046.97;;;16.08;54.38
77871;BME280;67067;46.850;7.578;2023-07-02T01:02:53;95048.56;;;16.09;54.04
77871;BME280;67067;46.850;7.578;2023-07-02T01:04:00;95049.63;;;16.08;53.85
77871;BME280;67067;46.850;7.578;2023-07-02T01:05:03;95056.91;;;16.02;53.99
77871;BME280;67067;46.850;7.578;2023-07-02T01:06:08;95054.25;;;16.02;53.96
77871;BME280;67067;46.850;7.578;2023-07-02T01:07:10;95051.59;;;16.02;53.85
77871;BME280;67067;46.850;7.578;2023-07-02T01:08:13;95056.69;;;15.98;54.04
77871;BME280;67067;46.850;7.578;2023-07-02T01:09:15;95046.88;;;15.94;53.90
77871;BME280;67067;46.850;7.578;2023-07-02T01:10:17;95052.75;;;15.96;53.74
77871;BME280;67067;46.850;7.578;2023-07-02T01:11:19;95053.56;;;15.91;53.13
77871;BME280;67067;46.850;7.578;2023-07-02T01:12:23;95045.50;;;15.96;52.42
77871;BME280;67067;46.850;7.578;2023-07-02T01:13:25;95058.28;;;15.99;52.80
77871;BME280;67067;46.850;7.578;2023-07-02T01:14:41;95048.72;;;15.93;52.57
77871;BME280;67067;46.850;7.578;2023-07-02T01:15:45;95051.34;;;15.98;51.96
77871;BME280;67067;46.850;7.578;2023-07-02T01:16:48;95060.94;;;15.99;52.45
77871;BME280;67067;46.850;7.578;2023-07-02T01:17:54;95059.31;;;16.03;52.95
77871;BME280;67067;46.850;7.578;2023-07-02T01:18:56;95052.34;;;16.02;53.71
77871;BME280;67067;46.850;7.578;2023-07-02T01:20:01;95059.31;;;16.03;53.79
77871;BME280;67067;46.850;7.578;2023-07-02T01:21:03;95052.94;;;15.99;52.98
77871;BME280;67067;46.850;7.578;2023-07-02T01:22:08;95048.31;;;16.05;52.86
77871;BME280;67067;46.850;7.578;2023-07-02T01:23:12;95050.72;;;16.07;52.09
77871;BME280;67067;46.850;7.578;2023-07-02T01:24:21;95051.50;;;16.07;52.27
77871;BME280;67067;46.850;7.578;2023-07-02T01:25:24;95049.63;;;16.08;51.96
77871;BME280;67067;46.850;7.578;2023-07-02T01:26:32;95047.03;;;16.02;52.59
77871;BME280;67067;46.850;7.578;2023-07-02T01:27:38;95050.13;;;16.10;52.36
77871;BME280;67067;46.850;7.578;2023-07-02T01:28:41;95042.81;;;16.15;51.73
77871;BME280;67067;46.850;7.578;2023-07-02T01:29:43;95048.66;;;16.17;51.63
77871;BME280;67067;46.850;7.578;2023-07-02T01:30:46;95054.00;;;16.17;51.69
77871;BME280;67067;46.850;7.578;2023-07-02T01:31:48;95055.31;;;16.20;51.07
77871;BME280;67067;46.850;7.578;2023-07-02T01:32:50;95054.38;;;16.11;51.47
77871;BME280;67067;46.850;7.578;2023-07-02T01:33:52;95054.22;;;16.21;51.37
77871;BME280;67067;46.850;7.578;2023-07-02T01:34:54;95048.88;;;16.21;51.58
77871;BME280;67067;46.850;7.578;2023-07-02T01:35:56;95056.31;;;16.24;51.22
77871;BME280;67067;46.850;7.578;2023-07-02T01:36:58;95058.41;;;16.27;51.02
77871;BME280;67067;46.850;7.578;2023-07-02T01:38:00;95057.41;;;16.23;50.99
77871;BME280;67067;46.850;7.578;2023-07-02T01:39:04;95061.34;;;16.26;50.90
77871;BME280;67067;46.850;7.578;2023-07-02T01:40:07;95058.41;;;16.27;50.88
77871;BME280;67067;46.850;7.578;2023-07-02T01:41:10;95061.56;;;16.29;50.90
77871;BME280;67067;46.850;7.578;2023-07-02T01:43:13;95067.69;;;16.30;50.37
77871;BME280;67067;46.850;7.578;2023-07-02T01:44:15;95064.72;;;16.31;49.98
77871;BME280;67067;46.850;7.578;2023-07-02T01:45:17;95075.59;;;16.35;50.06
77871;BME280;67067;46.850;7.578;2023-07-02T01:46:23;95067.91;;;16.33;49.95
77871;BME280;67067;46.850;7.578;2023-07-02T01:47:25;95068.69;;;16.34;49.93
77871;BME280;67067;46.850;7.578;2023-07-02T01:48:27;95066.31;;;16.32;50.05
77871;BME280;67067;46.850;7.578;2023-07-02T01:49:29;95070.78;;;16.37;49.83
77871;BME280;67067;46.850;7.578;2023-07-02T01:50:30;95064.22;;;16.29;49.97
77871;BME280;67067;46.850;7.578;2023-07-02T01:51:34;95067.41;;;16.31;50.15
77871;BME280;67067;46.850;7.578;2023-07-02T01:52:39;95073.81;;;16.30;50.23
77871;BME280;67067;46.850;7.578;2023-07-02T01:53:40;95073.03;;;16.30;50.16
77871;BME280;67067;46.850;7.578;2023-07-02T01:54:45;95076.91;;;16.38;49.86
77871;BME280;67067;46.850;7.578;2023-07-02T01:55:49;95076.41;;;16.36;49.63
77871;BME280;67067;46.850;7.578;2023-07-02T01:56:52;95073.66;;;16.41;49.26
77871;BME280;67067;46.850;7.578;2023-07-02T01:57:54;95079.31;;;16.39;48.98
77871;BME280;67067;46.850;7.578;2023-07-02T01:58:55;95079.94;;;16.31;49.44
77871;BME280;67067;46.850;7.578;2023-07-02T01:59:57;95072.06;;;16.40;49.73
77871;BME280;67067;46.850;7.578;2023-07-02T02:01:04;95077.91;;;16.42;49.92
77871;BME280;67067;46.850;7.578;2023-07-02T02:02:06;95073.66;;;16.41;50.09
77871;BME280;67067;46.850;7.578;2023-07-02T02:03:10;95070.78;;;16.37;50.23
77871;BME280;67067;46.850;7.578;2023-07-02T02:04:12;95066.91;;;16.29;50.46
77871;BME280;67067;46.850;7.578;2023-07-02T02:05:13;95075.25;;;16.42;50.29
77871;BME280;67067;46.850;7.578;2023-07-02T02:06:17;95064.56;;;16.42;49.85
77871;BME280;67067;46.850;7.578;2023-07-02T02:07:19;95069.31;;;16.45;49.52
77871;BME280;67067;46.850;7.578;2023-07-02T02:08:21;95066.31;;;16.32;49.97
77871;BME280;67067;46.850;7.578;2023-07-02T02:09:23;95055.47;;;16.43;49.67
77871;BME280;67067;46.850;7.578;2023-07-02T02:10:27;95068.72;;;16.48;49.59
77871;BME280;67067;46.850;7.578;2023-07-02T02:11:33;95070.91;;;16.46;49.89
77871;BME280;67067;46.850;7.578;2023-07-02T02:12:35;95067.63;;;16.49;50.01
77871;BME280;67067;46.850;7.578;2023-07-02T02:13:40;95065.56;;;16.46;49.53
77871;BME280;67067;46.850;7.578;2023-07-02T02:14:44;95066.56;;;16.50;49.84
77871;BME280;67067;46.850;7.578;2023-07-02T02:15:46;95066.94;;;16.43;49.79
77871;BME280;67067;46.850;7.578;2023-07-02T02:16:48;95068.72;;;16.48;49.71
77871;BME280;67067;46.850;7.578;2023-07-02T02:17:50;95076.66;;;16.53;49.74
77871;BME280;67067;46.850;7.578;2023-07-02T02:18:52;95071.41;;;16.48;49.26
77871;BME280;67067;46.850;7.578;2023-07-02T02:19:54;95072.97;;;16.49;49.24
77871;BME280;67067;46.850;7.578;2023-07-02T02:20:57;95073.97;;;16.53;49.56
77871;BME280;67067;46.850;7.578;2023-07-02T02:22:01;95075.06;;;16.52;49.57
77871;BME280;67067;46.850;7.578;2023-07-02T02:23:03;95072.78;;;16.45;49.58
77871;BME280;67067;46.850;7.578;2023-07-02T02:24:06;95072.69;;;16.51;50.03
77871;BME280;67067;46.850;7.578;2023-07-02T02:25:09;95076.38;;;16.55;50.14
77871;BME280;67067;46.850;7.578;2023-07-02T02:26:10;95080.41;;;16.52;49.94
77871;BME280;67067;46.850;7.578;2023-07-02T02:27:12;95076.06;;;16.42;49.99
77871;BME280;67067;46.850;7.578;2023-07-02T02:28:14;95079.41;;;16.48;49.90
77871;BME280;67067;46.850;7.578;2023-07-02T02:29:15;95074.06;;;16.48;50.35
77871;BME280;67067;46.850;7.578;2023-07-02T02:30:18;95076.16;;;16.51;50.02
77871;BME280;67067;46.850;7.578;2023-07-02T02:31:20;95075.06;;;16.52;49.83
77871;BME280;67067;46.850;7.578;2023-07-02T02:32:22;95079.41;;;16.48;50.46
77871;BME280;67067;46.850;7.578;2023-07-02T02:33:24;95079.31;;;16.53;50.45
77871;BME280;67067;46.850;7.578;2023-07-02T02:34:28;95082.81;;;16.54;50.32
77871;BME280;67067;46.850;7.578;2023-07-02T02:35:31;95077.47;;;16.54;50.00
77871;BME280;67067;46.850;7.578;2023-07-02T02:36:35;95079.22;;;16.44;50.49
77871;BME280;67067;46.850;7.578;2023-07-02T02:37:38;95080.63;;;16.56;49.90
77871;BME280;67067;46.850;7.578;2023-07-02T02:38:41;95084.56;;;16.58;49.94
77871;BME280;67067;46.850;7.578;2023-07-02T02:39:43;95080.22;;;16.48;50.08
77871;BME280;67067;46.850;7.578;2023-07-02T02:40:45;95078.22;;;16.54;49.99
77871;BME280;67067;46.850;7.578;2023-07-02T02:41:50;95083.00;;;16.57;49.98
77871;BME280;67067;46.850;7.578;2023-07-02T02:42:55;95090.00;;;16.53;50.05
77871;BME280;67067;46.850;7.578;2023-07-02T02:44:02;95077.81;;;16.47;49.82
77871;BME280;67067;46.850;7.578;2023-07-02T02:45:04;95093.75;;;16.52;50.01
77871;BME280;67067;46.850;7.578;2023-07-02T02:46:09;95084.16;;;16.51;49.84
77871;BME280;67067;46.850;7.578;2023-07-02T02:47:10;95085.84;;;16.47;49.61
77871;BME280;67067;46.850;7.578;2023-07-02T02:48:12;95095.03;;;16.41;49.52
77871;BME280;67067;46.850;7.578;2023-07-02T02:49:14;95087.72;;;16.46;49.97
77871;BME280;67067;46.850;7.578;2023-07-02T02:50:15;95085.94;;;16.42;49.83
77871;BME280;67067;46.850;7.578;2023-07-02T02:51:20;95090.00;;;16.53;50.08
77871;BME280;67067;46.850;7.578;2023-07-02T02:52:22;95091.22;;;16.61;49.96
77871;BME280;67067;46.850;7.578;2023-07-02T02:53:23;95093.09;;;16.60;49.87
77871;BME280;67067;46.850;7.578;2023-07-02T02:54:27;95083.41;;;16.65;49.28
77871;BME280;67067;46.850;7.578;2023-07-02T02:55:29;95085.16;;;16.55;49.95
77871;BME280;67067;46.850;7.578;2023-07-02T02:56:31;95090.63;;;16.64;49.37
77871;BME280;67067;46.850;7.578;2023-07-02T02:57:32;95084.88;;;16.57;49.91
77871;BME280;67067;46.850;7.578;2023-07-02T02:58:34;95083.91;;;16.67;49.68
77871;BME280;67067;46.850;7.578;2023-07-02T02:59:36;95092.72;;;16.67;49.91
77871;BME280;67067;46.850;7.578;2023-07-02T03:00:38;95093.31;;;16.64;49.81
77871;BME280;67067;46.850;7.578;2023-07-02T03:01:44;95096.25;;;16.62;49.45
77871;BME280;67067;46.850;7.578;2023-07-02T03:02:45;95089.31;;;16.61;49.61
77871;BME280;67067;46.850;7.578;2023-07-02T03:03:50;95090.63;;;16.64;48.99
77871;BME280;67067;46.850;7.578;2023-07-02T03:04:57;95098.44;;;16.60;49.43
77871;BME280;67067;46.850;7.578;2023-07-02T03:06:03;95094.25;;;16.54;49.29
77871;BME280;67067;46.850;7.578;2023-07-02T03:07:09;95093.47;;;16.54;49.18
77871;BME280;67067;46.850;7.578;2023-07-02T03:08:14;95088.41;;;16.52;48.76
77871;BME280;67067;46.850;7.578;2023-07-02T03:09:16;95096.66;;;16.56;48.77
77871;BME280;67067;46.850;7.578;2023-07-02T03:10:18;95094.25;;;16.54;48.69
77871;BME280;67067;46.850;7.578;2023-07-02T03:11:20;95098.81;;;16.54;48.73
77871;BME280;67067;46.850;7.578;2023-07-02T03:12:27;95096.44;;;16.52;48.96
77871;BME280;67067;46.850;7.578;2023-07-02T03:13:29;95096.44;;;16.52;48.96
77871;BME280;67067;46.850;7.578;2023-07-02T03:14:30;95096.03;;;16.45;49.15
77871;BME280;67067;46.850;7.578;2023-07-02T03:15:32;95090.75;;;16.40;48.73
77871;BME280;67067;46.850;7.578;2023-07-02T03:16:33;95095.44;;;16.48;48.72
77871;BME280;67067;46.850;7.578;2023-07-02T03:17:35;95098.59;;;16.50;48.63
77871;BME280;67067;46.850;7.578;2023-07-02T03:18:37;95096.44;;;16.52;48.81
77871;BME280;67067;46.850;7.578;2023-07-02T03:19:40;95099.41;;;16.51;48.59
77871;BME280;67067;46.850;7.578;2023-07-02T03:20:42;95095.84;;;16.41;48.57
77871;BME280;67067;46.850;7.578;2023-07-02T03:21:44;95095.59;;;16.38;48.56
77871;BME280;67067;46.850;7.578;2023-07-02T03:22:46;95093.94;;;16.42;48.51
77871;BME280;67067;46.850;7.578;2023-07-02T03:23:49;95097.34;;;16.47;47.99
77871;BME280;67067;46.850;7.578;2023-07-02T03:24:50;95095.53;;;16.43;47.99
77871;BME280;67067;46.850;7.578;2023-07-02T03:25:52;95093.03;;;16.32;47.80
77871;BME280;67067;46.850;7.578;2023-07-02T03:26:53;95093.94;;;16.42;47.74
77871;BME280;67067;46.850;7.578;2023-07-02T03:27:55;95092.44;;;16.36;48.13
77871;BME280;67067;46.850;7.578;2023-07-02T03:28:57;95095.25;;;16.44;47.88
77871;BME280;67067;46.850;7.578;2023-07-02T03:29:58;95093.84;;;16.47;47.96
77871;BME280;67067;46.850;7.578;2023-07-02T03:31:02;95099.19;;;16.47;47.89
77871;BME280;67067;46.850;7.578;2023-07-02T03:32:08;95097.84;;;16.50;47.96
77871;BME280;67067;46.850;7.578;2023-07-02T03:33:12;95091.69;;;16.49;47.98
77871;BME280;67067;46.850;7.578;2023-07-02T03:34:14;95102.66;;;16.47;48.07
77871;BME280;67067;46.850;7.578;2023-07-02T03:35:15;95098.78;;;16.40;48.20
77871;BME280;67067;46.850;7.578;2023-07-02T03:36:17;95105.03;;;16.49;47.92
77871;BME280;67067;46.850;7.578;2023-07-02T03:37:18;95102.44;;;16.44;48.03
77871;BME280;67067;46.850;7.578;2023-07-02T03:38:20;95106.53;;;16.55;48.00
77871;BME280;67067;46.850;7.578;2023-07-02T03:39:22;95107.53;;;16.59;47.60
77871;BME280;67067;46.850;7.578;2023-07-02T03:40:23;95105.03;;;16.49;47.97
77871;BME280;67067;46.850;7.578;2023-07-02T03:41:25;95107.03;;;16.57;47.92
77871;BME280;67067;46.850;7.578;2023-07-02T03:42:27;95106.16;;;16.62;47.69
77871;BME280;67067;46.850;7.578;2023-07-02T03:43:29;95103.66;;;16.52;47.87
77871;BME280;67067;46.850;7.578;2023-07-02T03:44:30;95112.28;;;16.62;47.74
77871;BME280;67067;46.850;7.578;2023-07-02T03:45:32;95110.28;;;16.54;48.21
77871;BME280;67067;46.850;7.578;2023-07-02T03:46:34;95110.13;;;16.65;47.62
77871;BME280;67067;46.850;7.578;2023-07-02T03:47:38;95110.13;;;16.65;47.64
77871;BME280;67067;46.850;7.578;2023-07-02T03:48:40;95109.63;;;16.62;47.98
77871;BME280;67067;46.850;7.578;2023-07-02T03:49:42;95112.88;;;16.59;47.85
77871;BME280;67067;46.850;7.578;2023-07-02T03:50:46;95115.53;;;16.59;47.95
77871;BME280;67067;46.850;7.578;2023-07-02T03:51:48;95115.53;;;16.59;47.25
77871;BME280;67067;46.850;7.578;2023-07-02T03:52:50;95115.44;;;16.51;47.49
77871;BME280;67067;46.850;7.578;2023-07-02T03:53:54;95118.53;;;16.58;47.24
77871;BME280;67067;46.850;7.578;2023-07-02T03:54:56;95122.78;;;16.59;47.32
77871;BME280;67067;46.850;7.578;2023-07-02T03:55:57;95130.16;;;16.48;47.66
77871;BME280;67067;46.850;7.578;2023-07-02T03:57:01;95126.81;;;16.56;47.58
77871;BME280;67067;46.850;7.578;2023-07-02T03:58:03;95124.66;;;16.58;47.03
77871;BME280;67067;46.850;7.578;2023-07-02T03:59:05;95120.69;;;16.56;47.26
77871;BME280;67067;46.850;7.578;2023-07-02T04:00:08;95125.22;;;16.55;46.78
77871;BME280;67067;46.850;7.578;2023-07-02T04:01:17;95121.56;;;16.51;47.13
77871;BME280;67067;46.850;7.578;2023-07-02T04:02:18;95127.88;;;16.41;47.44
77871;BME280;67067;46.850;7.578;2023-07-02T04:03:23;95124.03;;;16.47;46.98
77871;BME280;67067;46.850;7.578;2023-07-02T04:04:30;95121.06;;;16.49;46.57
77871;BME280;67067;46.850;7.578;2023-07-02T04:05:32;95129.66;;;16.46;46.01
77871;BME280;67067;46.850;7.578;2023-07-02T04:06:33;95130.19;;;16.29;46.31
77871;BME280;67067;46.850;7.578;2023-07-02T04:07:37;95127.06;;;16.41;46.23
77871;BME280;67067;46.850;7.578;2023-07-02T04:08:39;95129.47;;;16.42;45.99
77871;BME280;67067;46.850;7.578;2023-07-02T04:09:41;95127.31;;;16.25;46.46
77871;BME280;67067;46.850;7.578;2023-07-02T04:10:43;95135.75;;;16.32;46.44
77871;BME280;67067;46.850;7.578;2023-07-02T04:11:47;95139.66;;;16.40;46.46
77871;BME280;67067;46.850;7.578;2023-07-02T04:12:48;95137.69;;;16.27;46.69
77871;BME280;67067;46.850;7.578;2023-07-02T04:13:50;95134.34;;;16.35;46.32
77871;BME280;67067;46.850;7.578;2023-07-02T04:14:54;95139.34;;;16.42;46.17
77871;BME280;67067;46.850;7.578;2023-07-02T04:16:01;95145.19;;;16.44;46.33
77871;BME280;67067;46.850;7.578;2023-07-02T04:17:03;95147.84;;;16.44;46.21
77871;BME280;67067;46.850;7.578;2023-07-02T04:18:05;95146.25;;;16.43;46.11
77871;BME280;67067;46.850;7.578;2023-07-02T04:19:07;95149.09;;;16.32;46.13
77871;BME280;67067;46.850;7.578;2023-07-02T04:20:11;95150.03;;;16.42;45.86
77871;BME280;67067;46.850;7.578;2023-07-02T04:21:15;95145.75;;;16.41;45.42
77871;BME280;67067;46.850;7.578;2023-07-02T04:22:20;95146.44;;;16.32;45.81
77871;BME280;67067;46.850;7.578;2023-07-02T04:23:22;95140.09;;;16.28;45.83
77871;BME280;67067;46.850;7.578;2023-07-02T04:24:24;95135.53;;;16.29;45.36
77871;BME280;67067;46.850;7.578;2023-07-02T04:25:30;95146.50;;;16.27;45.48
77871;BME280;67067;46.850;7.578;2023-07-02T04:26:54;95148.09;;;16.28;46.36
77871;BME280;67067;46.850;7.578;2023-07-02T04:28:16;95150.19;;;16.31;46.56
77871;BME280;67067;46.850;7.578;2023-07-02T04:29:18;95151.19;;;16.36;46.51
77871;BME280;67067;46.850;7.578;2023-07-02T04:30:20;95143.94;;;16.36;45.81
77871;BME280;67067;46.850;7.578;2023-07-02T04:31:21;95151.03;;;16.27;45.87
77871;BME280;67067;46.850;7.578;2023-07-02T04:32:23;95150.19;;;16.31;45.95
77871;BME280;67067;46.850;7.578;2023-07-02T04:33:27;95145.63;;;16.32;45.72
77871;BME280;67067;46.850;7.578;2023-07-02T04:34:37;95149.59;;;16.34;46.09
77871;BME280;67067;46.850;7.578;2023-07-02T04:35:38;95151.94;;;16.22;46.90
77871;BME280;67067;46.850;7.578;2023-07-02T04:36:42;95149.09;;;16.32;46.99
77871;BME280;67067;46.850;7.578;2023-07-02T04:37:46;95153.59;;;16.37;46.76
77871;BME280;67067;46.850;7.578;2023-07-02T04:38:48;95151.47;;;16.34;46.73
77871;BME280;67067;46.850;7.578;2023-07-02T04:39:50;95151.41;;;16.20;47.05
77871;BME280;67067;46.850;7.578;2023-07-02T04:40:54;95150.19;;;16.31;46.78
77871;BME280;67067;46.850;7.578;2023-07-02T04:41:55;95149.75;;;16.24;46.87
77871;BME280;67067;46.850;7.578;2023-07-02T04:42:57;95159.47;;;16.34;46.89
77871;BME280;67067;46.850;7.578;2023-07-02T04:43:59;95142.09;;;16.37;47.03
77871;BME280;67067;46.850;7.578;2023-07-02T04:45:00;95148.38;;;16.27;47.52
77871;BME280;67067;46.850;7.578;2023-07-02T04:46:04;95148.00;;;16.33;47.19
77871;BME280;67067;46.850;7.578;2023-07-02T04:47:09;95151.69;;;16.38;47.53
77871;BME280;67067;46.850;7.578;2023-07-02T04:48:11;95150.53;;;16.25;47.68
77871;BME280;67067;46.850;7.578;2023-07-02T04:49:17;95152.78;;;16.37;47.07
77871;BME280;67067;46.850;7.578;2023-07-02T04:50:18;95151.34;;;16.25;47.22
77871;BME280;67067;46.850;7.578;2023-07-02T04:51:20;95153.63;;;16.32;47.34
77871;BME280;67067;46.850;7.578;2023-07-02T04:52:23;95153.94;;;16.30;47.22
77871;BME280;67067;46.850;7.578;2023-07-02T04:53:27;95153.06;;;16.35;47.30
77871;BME280;67067;46.850;7.578;2023-07-02T04:54:31;95148.38;;;16.27;47.35
77871;BME280;67067;46.850;7.578;2023-07-02T04:55:33;95144.63;;;16.28;46.82
77871;BME280;67067;46.850;7.578;2023-07-02T04:56:34;95140.75;;;16.20;46.90
77871;BME280;67067;46.850;7.578;2023-07-02T04:57:36;95143.84;;;16.27;46.62
77871;BME280;67067;46.850;7.578;2023-07-02T04:58:38;95144.84;;;16.31;46.91
77871;BME280;67067;46.850;7.578;2023-07-02T04:59:42;95146.19;;;16.29;46.99
77871;BME280;67067;46.850;7.578;2023-07-02T05:00:44;95140.59;;;16.30;46.67
77871;BME280;67067;46.850;7.578;2023-07-02T05:01:46;95145.13;;;16.30;46.73
77871;BME280;67067;46.850;7.578;2023-07-02T05:02:47;95149.44;;;16.26;47.40
77871;BME280;67067;46.850;7.578;2023-07-02T05:03:52;95154.63;;;16.36;46.81
77871;BME280;67067;46.850;7.578;2023-07-02T05:04:53;95156.44;;;16.41;47.11
77871;BME280;67067;46.850;7.578;2023-07-02T05:05:58;95152.69;;;16.42;46.03
77871;BME280;67067;46.850;7.578;2023-07-02T05:07:00;95155.09;;;16.43;46.22
77871;BME280;67067;46.850;7.578;2023-07-02T05:08:02;95153.41;;;16.47;45.86
77871;BME280;67067;46.850;7.578;2023-07-02T05:09:06;95152.34;;;16.48;46.04
77871;BME280;67067;46.850;7.578;2023-07-02T05:10:08;95153.63;;;16.51;45.72
77871;BME280;67067;46.850;7.578;2023-07-02T05:11:12;95147.09;;;16.57;45.73
77871;BME280;67067;46.850;7.578;2023-07-02T05:12:14;95153.13;;;16.49;46.18
77871;BME280;67067;46.850;7.578;2023-07-02T05:13:15;95151.84;;;16.60;46.31
77871;BME280;67067;46.850;7.578;2023-07-02T05:14:17;95162.13;;;16.53;46.49
77871;BME280;67067;46.850;7.578;2023-07-02T05:15:19;95160.97;;;16.59;46.68
77871;BME280;67067;46.850;7.578;2023-07-02T05:16:25;95152.00;;;16.69;46.41
77871;BME280;67067;46.850;7.578;2023-07-02T05:17:27;95158.16;;;16.70;46.19
77871;BME280;67067;46.850;7.578;2023-07-02T05:18:29;95157.00;;;16.76;46.03
77871;BME280;67067;46.850;7.578;2023-07-02T05:19:34;95160.44;;;16.76;45.85
77871;BME280;67067;46.850;7.578;2023-07-02T05:20:35;95160.81;;;16.70;45.95
77871;BME280;67067;46.850;7.578;2023-07-02T05:21:37;95153.94;;;16.83;45.78
77871;BME280;67067;46.850;7.578;2023-07-02T05:22:39;95158.09;;;16.75;46.16
77871;BME280;67067;46.850;7.578;2023-07-02T05:23:40;95161.38;;;16.86;46.27
77871;BME280;67067;46.850;7.578;2023-07-02T05:24:44;95158.91;;;16.89;46.25
77871;BME280;67067;46.850;7.578;2023-07-02T05:25:47;95154.16;;;16.86;46.57
77871;BME280;67067;46.850;7.578;2023-07-02T05:26:54;95154.16;;;16.86;46.30
77871;BME280;67067;46.850;7.578;2023-07-02T05:27:55;95155.75;;;16.87;45.82
77871;BME280;67067;46.850;7.578;2023-07-02T05:28:57;95155.97;;;16.72;46.30
77871;BME280;67067;46.850;7.578;2023-07-02T05:30:01;95155.34;;;16.80;46.59
77871;BME280;67067;46.850;7.578;2023-07-02T05:31:03;95153.34;;;16.86;46.81
77871;BME280;67067;46.850;7.578;2023-07-02T05:32:07;95149.00;;;16.90;46.40
77871;BME280;67067;46.850;7.578;2023-07-02T05:33:09;95153.16;;;16.96;45.92
77871;BME280;67067;46.850;7.578;2023-07-02T05:34:11;95150.41;;;16.87;45.85
77871;BME280;67067;46.850;7.578;2023-07-02T05:35:15;95151.00;;;16.98;45.49